createdAt,value
2023-03-13T00:01:33.789Z,100182.41
2023-03-13T00:03:58.903Z,100187.41
2023-03-13T00:06:22.999Z,100186.88
2023-03-13T00:08:46.566Z,100188.47
2023-03-13T00:11:12.668Z,100180.41
2023-03-13T00:13:36.953Z,100181.16
2023-03-13T00:16:04.500Z,100174.59
2023-03-13T00:18:28.030Z,100172.81
2023-03-13T00:21:00.301Z,100176.66
2023-03-13T00:23:23.929Z,100171.94
2023-03-13T00:25:47.427Z,100168.19
2023-03-13T00:28:11.013Z,100162.72
2023-03-13T00:30:34.667Z,100163.41
2023-03-13T00:32:58.338Z,100159.22
2023-03-13T00:35:22.064Z,100159.91
2023-03-13T00:37:47.123Z,100153.06
2023-03-13T00:40:12.708Z,100149.44
2023-03-13T00:42:36.657Z,100138.28
2023-03-13T00:45:00.185Z,100132.72
2023-03-13T00:47:23.775Z,100134.59
2023-03-13T00:49:47.298Z,100130.00
2023-03-13T00:52:10.893Z,100127.34
2023-03-13T00:54:35.843Z,100130.97
2023-03-13T00:56:59.632Z,100124.66
2023-03-13T00:59:23.184Z,100119.38
2023-03-13T01:01:47.983Z,100118.09
2023-03-13T01:04:13.430Z,100121.38
2023-03-13T01:06:40.761Z,100119.66
2023-03-13T01:09:07.350Z,100120.53
2023-03-13T01:11:35.681Z,100110.34
2023-03-13T01:14:01.084Z,100112.13
2023-03-13T01:16:25.945Z,100117.13
2023-03-13T01:18:52.655Z,100109.28
2023-03-13T01:21:19.209Z,100121.16
2023-03-13T01:23:42.791Z,100119.44
2023-03-13T01:26:08.561Z,100119.97
2023-03-13T01:28:33.710Z,100125.66
2023-03-13T01:30:57.385Z,100127.13
2023-03-13T01:33:21.270Z,100118.97
2023-03-13T01:35:45.073Z,100119.09
2023-03-13T01:38:10.286Z,100118.00
2023-03-13T01:40:40.615Z,100114.00
2023-03-13T01:43:26.691Z,100101.63
2023-03-13T01:46:04.384Z,100101.25
2023-03-13T01:48:43.206Z,100105.84
2023-03-13T01:51:11.848Z,100097.22
2023-03-13T01:53:38.619Z,100096.84
2023-03-13T01:56:07.738Z,100081.91
2023-03-13T01:58:32.175Z,100087.72
2023-03-13T02:00:57.180Z,100084.69
2023-03-13T02:03:22.533Z,100077.97
2023-03-13T02:05:48.183Z,100074.72
2023-03-13T02:08:19.048Z,100063.50
2023-03-13T02:10:51.531Z,100074.31
2023-03-13T02:13:17.813Z,100066.06
2023-03-13T02:15:42.765Z,100055.22
2023-03-13T02:18:08.061Z,100046.59
2023-03-13T02:20:31.705Z,100042.78
2023-03-13T02:23:03.268Z,100038.56
2023-03-13T02:25:40.391Z,100048.16
2023-03-13T02:28:09.739Z,100040.34
2023-03-13T02:30:36.100Z,100037.16
2023-03-13T02:33:01.258Z,100028.03
2023-03-13T02:35:25.852Z,100033.50
2023-03-13T02:37:56.042Z,100027.56
2023-03-13T02:40:27.041Z,100025.47
2023-03-13T02:42:56.285Z,100025.63
2023-03-13T02:45:20.168Z,100018.53
2023-03-13T02:47:44.576Z,100016.72
2023-03-13T02:50:10.088Z,100012.69
2023-03-13T02:52:39.130Z,100007.44
2023-03-13T02:55:09.256Z,100000.53
2023-03-13T02:57:34.016Z,99999.03
2023-03-13T02:59:59.200Z,99998.13
2023-03-13T03:02:22.964Z,99991.38
2023-03-13T03:04:46.681Z,99995.47
2023-03-13T03:07:10.252Z,99983.50
2023-03-13T03:09:34.893Z,99978.16
2023-03-13T03:12:03.314Z,99974.22
2023-03-13T03:14:26.955Z,99970.81
2023-03-13T03:16:52.147Z,99973.19
2023-03-13T03:19:16.481Z,99971.78
2023-03-13T03:21:40.549Z,99967.81
2023-03-13T03:24:04.805Z,99966.03
2023-03-13T03:26:28.496Z,99971.19
2023-03-13T03:28:52.247Z,99966.00
2023-03-13T03:31:17.227Z,99965.75
2023-03-13T03:33:43.839Z,99969.28
2023-03-13T03:36:12.247Z,99962.94
2023-03-13T03:38:35.978Z,99959.38
2023-03-13T03:40:59.498Z,99954.78
2023-03-13T03:43:23.513Z,99946.94
2023-03-13T03:45:47.301Z,99951.19
2023-03-13T03:48:11.594Z,99950.41
2023-03-13T03:50:36.844Z,99942.06
2023-03-13T03:53:00.915Z,99944.47
2023-03-13T03:55:24.511Z,99937.91
2023-03-13T03:57:48.412Z,99925.34
2023-03-13T04:00:20.262Z,99930.50
2023-03-13T04:02:49.524Z,99922.09
2023-03-13T04:05:13.129Z,99922.00
2023-03-13T04:07:39.074Z,99910.22
2023-03-13T04:10:02.691Z,99908.78
2023-03-13T04:12:33.205Z,99906.53
2023-03-13T04:14:56.853Z,99907.13
2023-03-13T04:17:20.376Z,99898.59
2023-03-13T04:19:44.057Z,99898.06
2023-03-13T04:22:07.618Z,99892.19
2023-03-13T04:24:32.697Z,99888.88
2023-03-13T04:26:56.255Z,99886.97
2023-03-13T04:29:19.831Z,99877.97
2023-03-13T04:31:56.164Z,99878.91
2023-03-13T04:34:35.890Z,99876.63
2023-03-13T04:37:32.048Z,99865.66
2023-03-13T04:40:17.176Z,99865.69
2023-03-13T04:43:02.846Z,99858.31
2023-03-13T04:45:45.158Z,99854.97
2023-03-13T04:48:27.344Z,99846.41
2023-03-13T04:51:01.910Z,99828.63
2023-03-13T04:53:42.064Z,99834.44
2023-03-13T04:56:43.582Z,99826.84
2023-03-13T04:59:40.348Z,99820.56
2023-03-13T05:02:16.251Z,99824.44
2023-03-13T05:04:55.282Z,99816.25
2023-03-13T05:07:37.730Z,99820.31
2023-03-13T05:10:10.053Z,99802.44
2023-03-13T05:12:53.383Z,99793.50
2023-03-13T05:15:43.277Z,99787.53
2023-03-13T05:18:25.636Z,99784.44
2023-03-13T05:21:05.792Z,99774.94
2023-03-13T05:23:47.971Z,99790.38
2023-03-13T05:26:23.989Z,99776.25
2023-03-13T05:29:12.270Z,99780.03
2023-03-13T05:31:52.077Z,99766.09
2023-03-13T05:34:34.143Z,99755.53
2023-03-13T05:37:23.640Z,99751.78
2023-03-13T05:39:55.626Z,99750.69
2023-03-13T05:42:22.393Z,99754.56
2023-03-13T05:44:57.987Z,99743.03
2023-03-13T05:47:54.118Z,99728.53
2023-03-13T05:50:56.357Z,99725.84
2023-03-13T05:53:38.815Z,99727.69
2023-03-13T05:56:34.892Z,99714.75
2023-03-13T05:59:08.473Z,99712.94
2023-03-13T06:01:53.704Z,99701.09
2023-03-13T06:04:24.935Z,99711.66
2023-03-13T06:06:49.205Z,99704.03
2023-03-13T06:09:13.977Z,99695.00
2023-03-13T06:11:37.766Z,99698.13
2023-03-13T06:14:02.511Z,99695.19
2023-03-13T06:16:32.457Z,99694.78
2023-03-13T06:19:12.181Z,99685.19
2023-03-13T06:21:35.833Z,99680.97
2023-03-13T06:23:59.393Z,99675.72
2023-03-13T06:26:24.442Z,99668.41
2023-03-13T06:28:48.076Z,99659.56
2023-03-13T06:31:12.216Z,99652.50
2023-03-13T06:33:37.282Z,99641.50
2023-03-13T06:36:04.288Z,99645.16
2023-03-13T06:38:28.373Z,99637.28
2023-03-13T06:40:52.031Z,99628.66
2023-03-13T06:43:15.628Z,99623.88
2023-03-13T06:45:39.236Z,99611.63
2023-03-13T06:48:02.729Z,99606.13
2023-03-13T06:50:26.437Z,99600.34
2023-03-13T06:52:51.313Z,99599.78
2023-03-13T06:55:15.094Z,99593.44
2023-03-13T06:57:38.609Z,99588.66
2023-03-13T07:00:02.294Z,99581.47
2023-03-13T07:02:25.938Z,99581.50
2023-03-13T07:04:49.525Z,99586.81
2023-03-13T07:07:25.714Z,99579.78
2023-03-13T07:09:56.032Z,99584.97
2023-03-13T07:12:19.560Z,99596.00
2023-03-13T07:14:43.133Z,99586.13
2023-03-13T07:17:06.805Z,99583.47
2023-03-13T07:19:30.688Z,99575.69
2023-03-13T07:21:54.444Z,99567.66
2023-03-13T07:24:18.143Z,99568.38
2023-03-13T07:26:57.978Z,99570.19
2023-03-13T07:29:26.825Z,99567.81
2023-03-13T07:31:50.503Z,99563.28
2023-03-13T07:34:14.155Z,99565.66
2023-03-13T07:36:37.710Z,99556.22
2023-03-13T07:39:01.291Z,99546.34
2023-03-13T07:41:24.949Z,99543.94
2023-03-13T07:43:49.963Z,99542.84
2023-03-13T07:46:15.906Z,99537.38
2023-03-13T07:48:41.456Z,99534.91
2023-03-13T07:51:05.928Z,99524.56
2023-03-13T07:53:30.784Z,99516.22
2023-03-13T07:55:59.491Z,99517.78
2023-03-13T07:58:24.033Z,99519.09
2023-03-13T08:00:49.113Z,99512.16
2023-03-13T08:03:12.751Z,99516.22
2023-03-13T08:05:36.335Z,99503.47
2023-03-13T08:08:00.176Z,99500.03
2023-03-13T08:10:23.679Z,99495.53
2023-03-13T08:12:47.280Z,99490.75
2023-03-13T08:15:11.607Z,99482.25
2023-03-13T08:17:36.633Z,99472.31
2023-03-13T08:20:00.144Z,99483.22
2023-03-13T08:22:23.749Z,99472.75
2023-03-13T08:24:47.285Z,99468.19
2023-03-13T08:27:10.857Z,99468.53
2023-03-13T08:29:34.434Z,99457.47
2023-03-13T08:31:58.043Z,99465.69
2023-03-13T08:34:22.989Z,99448.97
2023-03-13T08:36:46.650Z,99445.56
2023-03-13T08:39:14.326Z,99450.13
2023-03-13T08:41:40.652Z,99447.81
2023-03-13T08:44:05.333Z,99454.53
2023-03-13T08:46:31.616Z,99446.16
2023-03-13T08:48:56.375Z,99439.69
2023-03-13T08:51:24.108Z,99445.28
2023-03-13T08:53:48.417Z,99442.75
2023-03-13T08:56:14.276Z,99429.69
2023-03-13T08:58:38.014Z,99419.91
2023-03-13T09:01:04.592Z,99411.97
2023-03-13T09:03:28.195Z,99411.97
2023-03-13T09:05:56.237Z,99408.75
2023-03-13T09:08:21.410Z,99412.81
2023-03-13T09:10:44.987Z,99401.75
2023-03-13T09:13:08.546Z,99395.31
2023-03-13T09:15:32.201Z,99400.06
2023-03-13T09:17:55.958Z,99403.00
2023-03-13T09:20:19.837Z,99396.28
2023-03-13T09:22:43.346Z,99398.47
2023-03-13T09:25:09.644Z,99394.56
2023-03-13T09:27:33.180Z,99404.50
2023-03-13T09:29:56.806Z,99394.94
2023-03-13T09:32:20.633Z,99399.75
2023-03-13T09:34:44.310Z,99398.16
2023-03-13T09:37:08.865Z,99397.00
2023-03-13T09:39:32.454Z,99390.38
2023-03-13T09:42:09.414Z,99392.31
2023-03-13T09:44:39.720Z,99397.75
2023-03-13T09:47:10.974Z,99393.69
2023-03-13T09:49:39.490Z,99383.72
2023-03-13T09:52:15.359Z,99383.00
2023-03-13T09:54:43.252Z,99377.38
2023-03-13T09:57:16.870Z,99380.72
2023-03-13T09:59:49.054Z,99370.91
2023-03-13T10:02:25.190Z,99374.22
2023-03-13T10:04:53.581Z,99375.81
2023-03-13T10:07:17.197Z,99384.97
2023-03-13T10:09:42.419Z,99375.88
2023-03-13T10:12:14.556Z,99352.13
2023-03-13T10:14:46.781Z,99371.31
2023-03-13T10:17:31.400Z,99360.63
2023-03-13T10:20:01.155Z,99358.91
2023-03-13T10:22:30.121Z,99363.03
2023-03-13T10:25:00.378Z,99362.00
2023-03-13T10:27:25.321Z,99360.16
2023-03-13T10:29:49.056Z,99347.91
2023-03-13T10:32:17.169Z,99331.78
2023-03-13T10:34:53.570Z,99343.22
2023-03-13T10:37:22.755Z,99343.88
2023-03-13T10:39:46.296Z,99348.94
2023-03-13T10:42:22.615Z,99341.47
2023-03-13T10:44:47.739Z,99324.19
2023-03-13T10:47:15.183Z,99320.56
2023-03-13T10:49:50.497Z,99331.84
2023-03-13T10:52:33.579Z,99326.25
2023-03-13T10:55:02.589Z,99311.63
2023-03-13T10:57:32.277Z,99322.25
2023-03-13T10:59:58.589Z,99315.34
2023-03-13T11:02:26.891Z,99311.81
2023-03-13T11:04:53.903Z,99311.88
2023-03-13T11:07:26.889Z,99297.75
2023-03-13T11:10:00.554Z,99304.00
2023-03-13T11:12:24.150Z,99304.47
2023-03-13T11:14:48.076Z,99302.25
2023-03-13T11:17:30.133Z,99293.97
2023-03-13T11:20:06.970Z,99283.00
2023-03-13T11:22:40.664Z,99297.34
2023-03-13T11:25:17.779Z,99298.84
2023-03-13T11:27:51.517Z,99290.06
2023-03-13T11:30:40.198Z,99295.88
2023-03-13T11:33:11.546Z,99290.56
2023-03-13T11:35:41.775Z,99282.66
2023-03-13T11:38:10.535Z,99278.28
2023-03-13T11:40:41.157Z,99278.41
2023-03-13T11:43:26.408Z,99276.78
2023-03-13T11:46:12.296Z,99276.34
2023-03-13T11:49:19.808Z,99278.97
2023-03-13T11:52:02.097Z,99279.00
2023-03-13T11:54:59.178Z,99282.59
2023-03-13T11:57:30.902Z,99275.53
2023-03-13T12:00:15.423Z,99280.44
2023-03-13T12:02:44.500Z,99276.34
2023-03-13T12:05:14.116Z,99267.16
2023-03-13T12:07:43.911Z,99270.53
2023-03-13T12:10:13.989Z,99265.28
2023-03-13T12:12:44.437Z,99267.03
2023-03-13T12:15:23.118Z,99249.63
2023-03-13T12:17:53.459Z,99261.13
2023-03-13T12:20:26.199Z,99264.25
2023-03-13T12:22:59.723Z,99261.94
2023-03-13T12:25:28.939Z,99257.47
2023-03-13T12:27:56.422Z,99252.81
2023-03-13T12:30:35.562Z,99246.13
2023-03-13T12:33:07.998Z,99233.34
2023-03-13T12:35:34.333Z,99240.88
2023-03-13T12:38:06.805Z,99226.72
2023-03-13T12:40:38.862Z,99234.38
2023-03-13T12:43:11.839Z,99239.06
2023-03-13T12:45:40.310Z,99216.97
2023-03-13T12:48:27.384Z,99220.63
2023-03-13T12:51:11.319Z,99212.31
2023-03-13T12:54:13.744Z,99219.06
2023-03-13T12:57:16.007Z,99217.13
2023-03-13T12:59:42.634Z,99227.44
2023-03-13T13:02:19.140Z,99221.81
2023-03-13T13:04:47.191Z,99209.09
2023-03-13T13:07:24.688Z,99211.66
2023-03-13T13:10:05.898Z,99199.16
2023-03-13T13:12:29.748Z,99196.34
2023-03-13T13:15:20.131Z,99205.88
2023-03-13T13:18:02.091Z,99198.09
2023-03-13T13:20:46.172Z,99173.84
2023-03-13T13:23:37.686Z,99179.41
2023-03-13T13:26:50.077Z,99193.94
2023-03-13T13:29:56.337Z,99179.50
2023-03-13T13:32:30.585Z,99173.13
2023-03-13T13:35:03.125Z,99182.50
2023-03-13T13:37:29.948Z,99177.66
2023-03-13T13:40:23.537Z,99158.06
2023-03-13T13:42:56.001Z,99166.00
2023-03-13T13:45:30.468Z,99173.53
2023-03-13T13:48:35.882Z,99182.25
2023-03-13T13:51:25.986Z,99176.03
2023-03-13T13:53:53.082Z,99178.19
2023-03-13T13:56:41.098Z,99179.47
2023-03-13T13:59:25.330Z,99175.81
2023-03-13T14:01:51.171Z,99169.53
2023-03-13T14:04:23.964Z,99167.50
2023-03-13T14:06:50.458Z,99172.09
2023-03-13T14:09:25.413Z,99163.28
2023-03-13T14:11:49.529Z,99153.94
2023-03-13T14:14:17.836Z,99155.25
2023-03-13T14:16:46.333Z,99147.31
2023-03-13T14:19:24.333Z,99169.47
2023-03-13T14:21:48.003Z,99158.41
2023-03-13T14:24:15.747Z,99161.31
2023-03-13T14:26:45.292Z,99161.94
2023-03-13T14:29:08.913Z,99163.59
2023-03-13T14:31:36.017Z,99156.97
2023-03-13T14:34:04.713Z,99154.44
2023-03-13T14:36:30.777Z,99150.38
2023-03-13T14:38:57.655Z,99147.97
2023-03-13T14:41:33.783Z,99155.91
2023-03-13T14:44:06.063Z,99143.38
2023-03-13T14:46:33.705Z,99143.16
2023-03-13T14:48:57.979Z,99147.97
2023-03-13T14:51:25.874Z,99134.41
2023-03-13T14:53:59.211Z,99137.94
2023-03-13T14:56:22.956Z,99122.03
2023-03-13T14:58:48.681Z,99133.25
2023-03-13T15:01:30.675Z,99130.44
2023-03-13T15:03:54.406Z,99127.47
2023-03-13T15:06:21.177Z,99116.16
2023-03-13T15:08:46.831Z,99121.59
2023-03-13T15:11:23.555Z,99115.13
2023-03-13T15:13:47.260Z,99118.69
2023-03-13T15:16:16.926Z,99108.25
2023-03-13T15:18:40.639Z,99098.22
2023-03-13T15:21:24.335Z,99107.50
2023-03-13T15:23:52.362Z,99099.47
2023-03-13T15:26:15.871Z,99091.81
2023-03-13T15:28:40.902Z,99103.88
2023-03-13T15:31:04.539Z,99086.94
2023-03-13T15:33:30.606Z,99090.09
2023-03-13T15:35:54.192Z,99089.81
2023-03-13T15:38:20.277Z,99077.72
2023-03-13T15:40:44.410Z,99086.50
2023-03-13T15:43:08.409Z,99078.59
2023-03-13T15:45:33.623Z,99072.03
2023-03-13T15:47:57.417Z,99070.19
2023-03-13T15:50:25.571Z,99062.66
2023-03-13T15:52:50.283Z,99061.06
2023-03-13T15:55:14.884Z,99059.34
2023-03-13T15:57:44.129Z,99064.34
2023-03-13T16:00:16.523Z,99061.63
2023-03-13T16:02:41.560Z,99047.78
2023-03-13T16:05:05.693Z,99049.09
2023-03-13T16:07:29.284Z,99063.22
2023-03-13T16:09:52.819Z,99051.56
2023-03-13T16:12:16.631Z,99049.50
2023-03-13T16:14:41.187Z,99045.94
2023-03-13T16:17:13.469Z,99045.75
2023-03-13T16:19:38.630Z,99032.75
2023-03-13T16:22:02.178Z,99038.75
2023-03-13T16:24:25.916Z,99028.03
2023-03-13T16:26:49.505Z,99023.28
2023-03-13T16:29:15.649Z,99016.41
2023-03-13T16:31:39.347Z,99022.19
2023-03-13T16:34:03.549Z,99017.16
2023-03-13T16:36:32.176Z,99003.00
2023-03-13T16:38:56.026Z,99002.19
2023-03-13T16:41:21.988Z,99009.09
2023-03-13T16:43:46.299Z,98996.53
2023-03-13T16:46:16.356Z,98981.75
2023-03-13T16:48:40.072Z,98989.25
2023-03-13T16:51:05.254Z,98994.28
2023-03-13T16:53:32.047Z,98995.91
2023-03-13T16:55:55.825Z,98989.38
2023-03-13T16:58:19.656Z,98984.44
2023-03-13T17:00:46.880Z,98985.13
2023-03-13T17:03:14.342Z,98979.06
2023-03-13T17:05:37.932Z,98972.34
2023-03-13T17:08:01.525Z,98972.69
2023-03-13T17:10:28.661Z,98975.47
2023-03-13T17:12:52.591Z,98973.84
2023-03-13T17:15:16.542Z,98981.22
2023-03-13T17:17:40.944Z,98976.84
2023-03-13T17:20:06.596Z,98969.56
2023-03-13T17:22:30.238Z,98965.72
2023-03-13T17:24:53.769Z,98964.31
2023-03-13T17:27:19.351Z,98970.75
2023-03-13T17:29:43.706Z,98978.09
2023-03-13T17:32:07.711Z,98977.19
2023-03-13T17:34:31.355Z,98979.50
2023-03-13T17:36:55.018Z,98974.09
2023-03-13T17:39:18.679Z,98978.19
2023-03-13T17:41:42.368Z,98977.66
2023-03-13T17:44:08.505Z,98982.44
2023-03-13T17:46:36.094Z,98979.28
2023-03-13T17:48:59.716Z,98974.75
2023-03-13T17:51:26.051Z,98972.88
2023-03-13T17:53:50.812Z,98972.28
2023-03-13T17:56:17.517Z,98965.06
2023-03-13T17:58:41.088Z,98969.56
2023-03-13T18:01:06.903Z,98962.91
2023-03-13T18:03:30.464Z,98957.50
2023-03-13T18:05:55.746Z,98954.78
2023-03-13T18:08:19.265Z,98955.50
2023-03-13T18:10:42.859Z,98951.97
2023-03-13T18:13:06.387Z,98959.47
2023-03-13T18:15:30.170Z,98960.03
2023-03-13T18:17:55.764Z,98951.97
2023-03-13T18:20:22.031Z,98936.56
2023-03-13T18:22:45.629Z,98938.53
2023-03-13T18:25:10.566Z,98956.19
2023-03-13T18:27:34.111Z,98951.75
2023-03-13T18:29:57.827Z,98952.16
2023-03-13T18:32:21.444Z,98944.06
2023-03-13T18:34:46.752Z,98950.94
2023-03-13T18:37:23.358Z,98942.75
2023-03-13T18:39:49.868Z,98930.44
2023-03-13T18:42:13.459Z,98935.22
2023-03-13T18:44:37.072Z,98933.34
2023-03-13T18:47:00.750Z,98921.38
2023-03-13T18:49:24.926Z,98918.59
2023-03-13T18:51:50.126Z,98912.59
2023-03-13T18:54:13.901Z,98920.19
2023-03-13T18:56:38.214Z,98919.69
2023-03-13T18:59:01.898Z,98921.72
2023-03-13T19:01:27.607Z,98914.56
2023-03-13T19:03:51.660Z,98922.81
2023-03-13T19:06:27.303Z,98920.34
2023-03-13T19:08:54.436Z,98922.47
2023-03-13T19:11:19.964Z,98920.97
2023-03-13T19:13:43.972Z,98909.75
2023-03-13T19:16:16.986Z,98897.13
2023-03-13T19:18:40.719Z,98888.00
2023-03-13T19:21:04.278Z,98890.31
2023-03-13T19:23:28.068Z,98900.69
2023-03-13T19:25:53.489Z,98909.59
2023-03-13T19:28:22.996Z,98895.13
2023-03-13T19:30:47.678Z,98903.97
2023-03-13T19:33:11.878Z,98905.44
2023-03-13T19:35:35.525Z,98911.13
2023-03-13T19:37:59.103Z,98899.44
2023-03-13T19:40:28.474Z,98888.84
2023-03-13T19:42:53.433Z,98894.25
2023-03-13T19:45:19.757Z,98892.41
2023-03-13T19:47:43.484Z,98894.41
2023-03-13T19:50:08.431Z,98885.25
2023-03-13T19:52:32.025Z,98892.28
2023-03-13T19:54:55.926Z,98884.31
2023-03-13T19:57:19.616Z,98889.28
2023-03-13T19:59:44.609Z,98887.91
2023-03-13T20:02:09.232Z,98891.63
2023-03-13T20:04:33.206Z,98891.00
2023-03-13T20:06:56.927Z,98892.72
2023-03-13T20:09:21.490Z,98892.59
2023-03-13T20:11:45.596Z,98889.28
2023-03-13T20:14:09.648Z,98886.66
2023-03-13T20:16:35.453Z,98873.97
2023-03-13T20:19:00.644Z,98866.50
2023-03-13T20:21:25.797Z,98865.22
2023-03-13T20:23:51.396Z,98865.06
2023-03-13T20:26:17.702Z,98861.88
2023-03-13T20:28:43.511Z,98860.47
2023-03-13T20:31:08.830Z,98864.84
2023-03-13T20:33:34.720Z,98863.34
2023-03-13T20:36:00.258Z,98850.66
2023-03-13T20:38:23.994Z,98845.91
2023-03-13T20:40:53.838Z,98836.69
2023-03-13T20:43:17.357Z,98837.91
2023-03-13T20:45:40.903Z,98843.00
2023-03-13T20:48:04.720Z,98838.59
2023-03-13T20:50:29.683Z,98826.94
2023-03-13T20:52:53.247Z,98836.31
2023-03-13T20:55:17.345Z,98847.97
2023-03-13T20:57:40.876Z,98845.41
2023-03-13T21:00:06.826Z,98851.69
2023-03-13T21:02:30.390Z,98852.25
2023-03-13T21:04:54.186Z,98853.22
2023-03-13T21:07:19.306Z,98844.94
2023-03-13T21:09:42.873Z,98855.16
2023-03-13T21:12:06.981Z,98855.50
2023-03-13T21:14:30.860Z,98860.66
2023-03-13T21:16:54.579Z,98846.75
2023-03-13T21:19:18.216Z,98843.41
2023-03-13T21:21:41.827Z,98846.47
2023-03-13T21:24:07.927Z,98850.59
2023-03-13T21:26:32.353Z,98854.97
2023-03-13T21:28:55.939Z,98852.38
2023-03-13T21:31:22.203Z,98865.63
2023-03-13T21:33:47.179Z,98872.72
2023-03-13T21:36:11.724Z,98871.28
2023-03-13T21:38:36.070Z,98873.97
2023-03-13T21:41:01.111Z,98872.31
2023-03-13T21:43:28.026Z,98864.91
2023-03-13T21:45:51.576Z,98875.66
2023-03-13T21:48:15.139Z,98858.69
2023-03-13T21:50:38.728Z,98861.13
2023-03-13T21:53:02.358Z,98860.13
2023-03-13T21:55:26.073Z,98853.19
2023-03-13T21:57:51.152Z,98838.59
2023-03-13T22:00:16.100Z,98839.28
2023-03-13T22:02:39.667Z,98835.09
2023-03-13T22:05:03.387Z,98835.13
2023-03-13T22:07:27.013Z,98836.25
2023-03-13T22:09:50.596Z,98836.47
2023-03-13T22:12:14.208Z,98843.19
2023-03-13T22:14:39.372Z,98848.69
2023-03-13T22:17:02.898Z,98840.84
2023-03-13T22:19:26.554Z,98842.75
2023-03-13T22:21:50.097Z,98842.19
2023-03-13T22:24:14.163Z,98838.13
2023-03-13T22:26:37.724Z,98821.81
2023-03-13T22:29:01.344Z,98824.66
2023-03-13T22:31:26.304Z,98839.03
2023-03-13T22:33:49.908Z,98835.03
2023-03-13T22:36:13.606Z,98835.50
2023-03-13T22:38:39.043Z,98837.59
2023-03-13T22:41:04.393Z,98839.34
2023-03-13T22:43:28.168Z,98831.03
2023-03-13T22:45:51.781Z,98826.38
2023-03-13T22:48:16.761Z,98823.94
2023-03-13T22:50:40.379Z,98823.16
2023-03-13T22:53:04.396Z,98827.16
2023-03-13T22:55:28.110Z,98810.59
2023-03-13T22:57:51.861Z,98817.03
2023-03-13T23:00:17.085Z,98818.34
2023-03-13T23:02:40.610Z,98813.72
2023-03-13T23:05:06.321Z,98807.56
2023-03-13T23:07:32.289Z,98810.47
2023-03-13T23:09:56.324Z,98801.53
2023-03-13T23:12:21.208Z,98812.88
2023-03-13T23:14:44.728Z,98820.94
2023-03-13T23:17:08.359Z,98819.56
2023-03-13T23:19:35.530Z,98819.69
2023-03-13T23:22:00.514Z,98810.06
2023-03-13T23:24:24.060Z,98792.31
2023-03-13T23:26:47.614Z,98785.13
2023-03-13T23:29:11.210Z,98778.16
2023-03-13T23:31:34.950Z,98774.75
2023-03-13T23:33:59.124Z,98779.25
2023-03-13T23:36:22.859Z,98788.03
2023-03-13T23:38:51.508Z,98783.91
2023-03-13T23:41:16.279Z,98767.47
2023-03-13T23:43:40.355Z,98765.81
2023-03-13T23:46:04.615Z,98778.38
2023-03-13T23:48:28.236Z,98785.53
2023-03-13T23:50:51.873Z,98781.66
2023-03-13T23:53:15.446Z,98784.41
2023-03-13T23:55:40.445Z,98774.22
2023-03-13T23:58:04.030Z,98784.88
